Time;durP1;ratioP1;P1;durP2;ratioP2;P2;SDS_P1;SDS_P2;PMS_P1;PMS_P2;Temp;Humidity;BMP_temperature;BMP_pressure;BME280_temperature;BME280_humidity;BME280_pressure;Samples;Min_cycle;Max_cycle;Signal;HPM_P1;HPM_P2
2023/10/13 00:02:07;;;;;;;6.07;2.13;;;;;;;8.10;92.96;97685.97;5070135;28;20140;-58
2023/10/13 00:04:37;;;;;;;3.13;1.42;;;;;;;8.22;92.67;97688.34;5075149;28;20456;-57
2023/10/13 00:07:04;;;;;;;7.82;1.88;;;;;;;8.32;92.50;97688.34;5070825;28;20036;-57
2023/10/13 00:09:33;;;;;;;2.53;1.38;;;;;;;8.39;91.07;97691.56;5053560;28;20072;-58
2023/10/13 00:12:00;;;;;;;4.22;2.17;;;;;;;8.46;91.37;97693.94;5053840;28;20071;-57
2023/10/13 00:14:34;;;;;;;6.35;1.88;;;;;;;8.50;91.02;97691.53;5071630;28;20040;-57
2023/10/13 00:17:05;;;;;;;4.68;1.88;;;;;;;8.53;90.22;97696.28;5020933;28;20128;-57
2023/10/13 00:19:54;;;;;;;5.32;1.73;;;;;;;8.58;90.00;97699.72;5071630;28;20436;-56
2023/10/13 00:22:22;;;;;;;4.55;1.48;;;;;;;8.63;90.17;97707.66;5072015;28;20048;-58
2023/10/13 00:24:51;;;;;;;5.38;2.70;;;;;;;8.70;89.71;97706.59;5071525;28;20048;-57
2023/10/13 00:27:29;;;;;;;5.22;1.77;;;;;;;8.73;89.44;97696.28;5072022;28;20405;-56
2023/10/13 00:30:17;;;;;;;6.47;1.70;;;;;;;8.73;89.45;97709.50;5071830;28;20048;-56
2023/10/13 00:32:44;;;;;;;4.30;1.88;;;;;;;8.79;89.06;97705.78;5052826;28;20524;-55
2023/10/13 00:35:13;;;;;;;5.40;1.42;;;;;;;8.81;88.86;97708.16;5071325;28;20526;-56
2023/10/13 00:37:44;;;;;;;5.50;1.90;;;;;;;8.83;88.04;97714.78;5053492;28;20123;-56
2023/10/13 00:43:03;;;;;;;8.43;1.83;;;;;;;8.87;87.71;97715.81;5070602;28;20082;-57
2023/10/13 00:45:33;;;;;;;11.40;2.08;;;;;;;8.85;86.83;97714.50;5070327;28;20436;-57
2023/10/13 00:48:01;;;;;;;3.83;1.50;;;;;;;8.89;87.05;97723.50;5070439;28;20044;-56
2023/10/13 00:50:29;;;;;;;6.63;1.48;;;;;;;8.93;87.81;97731.66;5071569;28;20032;-58
2023/10/13 00:52:56;;;;;;;3.28;1.50;;;;;;;8.92;87.37;97743.31;5070362;28;20044;-57
2023/10/13 00:55:22;;;;;;;5.43;1.88;;;;;;;8.94;87.93;97742.00;5053202;28;20546;-55
2023/10/13 00:57:57;;;;;;;3.78;1.65;;;;;;;8.94;87.61;97742.00;5035493;28;20533;-56
2023/10/13 01:00:28;;;;;;;5.70;1.73;;;;;;;9.00;87.65;97755.97;5036979;28;20040;-57
2023/10/13 01:02:55;;;;;;;6.13;1.90;;;;;;;8.95;92.82;97753.34;5053272;28;20049;-56
2023/10/13 01:05:25;;;;;;;3.15;1.50;;;;;;;8.75;94.57;97748.88;5071057;28;20532;-57
2023/10/13 01:07:54;;;;;;;3.95;1.40;;;;;;;8.60;95.43;97745.16;5053579;28;20045;-57
2023/10/13 01:10:25;;;;;;;5.30;1.90;;;;;;;8.41;91.36;97762.56;5053178;28;20047;-57
2023/10/13 01:12:52;;;;;;;4.35;1.40;;;;;;;8.30;91.24;97753.84;5071299;28;20128;-55
2023/10/13 01:15:21;;;;;;;2.53;1.20;;;;;;;8.17;88.30;97756.97;5053504;28;20036;-56
2023/10/13 01:17:48;;;;;;;3.23;1.50;;;;;;;8.13;89.95;97761.97;5053379;28;20163;-57
2023/10/13 01:20:24;;;;;;;2.67;1.10;;;;;;;8.12;90.46;97751.69;5053044;28;20037;-57
2023/10/13 01:22:56;;;;;;;2.92;1.23;;;;;;;8.04;89.62;97758.28;5053415;28;20045;-57
2023/10/13 01:25:26;;;;;;;4.07;1.35;;;;;;;8.02;89.89;97756.94;5071112;28;20043;-58
2023/10/13 01:27:52;;;;;;;4.40;1.27;;;;;;;8.03;88.68;97756.69;5037184;28;20131;-59
2023/10/13 01:30:22;;;;;;;2.63;1.15;;;;;;;8.03;88.23;97759.34;5053008;28;20580;-57
2023/10/13 01:33:00;;;;;;;4.72;1.25;;;;;;;8.12;89.25;97765.69;5053981;28;20041;-55
2023/10/13 01:35:35;;;;;;;4.93;1.50;;;;;;;8.10;87.38;97772.28;5036459;28;20067;-57
2023/10/13 01:38:01;;;;;;;6.20;1.42;;;;;;;8.13;87.55;97767.25;5070823;28;20056;-58
2023/10/13 01:40:28;;;;;;;5.03;1.30;;;;;;;8.16;88.62;97779.94;5052850;28;20533;-56
2023/10/13 01:42:55;;;;;;;2.75;1.25;;;;;;;8.13;88.21;97775.19;5052476;28;20129;-58
2023/10/13 01:45:21;;;;;;;4.80;1.30;;;;;;;8.15;88.22;97780.22;5053205;28;20147;-57
2023/10/13 01:47:50;;;;;;;2.25;1.00;;;;;;;8.18;88.74;97780.47;5052639;28;20048;-56
2023/10/13 01:50:21;;;;;;;5.80;1.23;;;;;;;8.18;88.20;97766.50;5036360;28;20040;-56
2023/10/13 01:52:47;;;;;;;5.88;1.30;;;;;;;8.21;87.17;97768.59;5070684;28;20127;-55
2023/10/13 01:55:14;;;;;;;7.68;2.40;;;;;;;8.27;87.88;97772.84;5070839;28;20186;-57
2023/10/13 01:57:46;;;;;;;4.00;2.00;;;;;;;8.33;87.28;97779.72;5060311;28;20048;-56
2023/10/13 02:00:19;;;;;;;2.35;1.30;;;;;;;8.33;87.13;97779.72;5076087;28;20055;-55
2023/10/13 02:02:45;;;;;;;1.92;1.20;;;;;;;8.34;87.33;97786.56;5075679;28;20059;-56
2023/10/13 02:05:16;;;;;;;5.82;1.50;;;;;;;8.41;87.81;97776.59;5076065;28;20138;-56
2023/10/13 02:07:45;;;;;;;4.43;1.30;;;;;;;8.48;87.34;97786.88;5076320;28;20238;-57
2023/10/13 02:10:13;;;;;;;3.47;1.50;;;;;;;8.44;87.31;97791.09;5076195;28;20114;-55
2023/10/13 02:12:43;;;;;;;4.47;2.50;;;;;;;8.30;88.05;97784.72;5076204;28;20044;-56
2023/10/13 02:15:21;;;;;;;;;;;;;;;8.26;88.57;97779.16;5059946;28;20036;-54
2023/10/13 02:17:51;;;;;;;7.40;1.95;;;;;;;8.19;88.90;97775.97;5094331;28;19957;-58
2023/10/13 02:20:18;;;;;;;5.38;1.70;;;;;;;8.20;89.40;97785.47;5059464;28;20519;-56
2023/10/13 02:22:49;;;;;;;4.45;1.50;;;;;;;8.21;89.17;97784.44;5075873;28;20071;-56
2023/10/13 02:25:35;;;;;;;4.75;1.67;;;;;;;8.20;89.63;97788.13;5094102;28;20536;-57
2023/10/13 02:28:02;;;;;;;4.88;1.75;;;;;;;8.16;89.06;97793.13;5094216;28;20048;-57
2023/10/13 02:30:29;;;;;;;6.78;1.65;;;;;;;8.18;89.26;97783.13;5076136;28;20044;-56
2023/10/13 02:32:55;;;;;;;5.75;1.58;;;;;;;8.14;89.58;97783.88;5093689;28;20087;-56
2023/10/13 02:35:41;;;;;;;7.13;1.80;;;;;;;8.02;89.75;97788.59;5042667;28;20086;-56
2023/10/13 02:38:11;;;;;;;6.68;2.00;;;;;;;7.91;89.72;97780.69;5093877;28;20067;-58
2023/10/13 02:40:37;;;;;;;;;;;;;;;7.82;90.62;97782.19;5094092;28;20044;-57
2023/10/13 02:43:05;;;;;;;5.38;1.63;;;;;;;7.74;90.27;97793.28;5093436;28;20014;-56
2023/10/13 02:45:35;;;;;;;5.10;2.15;;;;;;;7.70;90.66;97792.19;5058820;28;20040;-56
2023/10/13 02:48:12;;;;;;;9.73;1.87;;;;;;;7.61;91.21;97796.38;5074987;28;20455;-56
2023/10/13 02:50:43;;;;;;;5.55;2.00;;;;;;;7.57;91.50;97797.94;5091190;28;20123;-56
2023/10/13 02:53:12;;;;;;;4.07;1.63;;;;;;;7.56;91.42;97804.25;5075057;28;20043;-56
2023/10/13 02:55:52;;;;;;;6.60;2.22;;;;;;;7.54;91.19;97803.72;5093136;28;20101;-57
2023/10/13 02:58:18;;;;;;;5.25;1.95;;;;;;;7.49;91.32;97802.63;5080559;28;20032;-56
2023/10/13 03:00:46;;;;;;;4.70;1.77;;;;;;;7.47;91.40;97801.28;5072991;28;20501;-57
2023/10/13 03:03:14;;;;;;;5.50;1.92;;;;;;;7.46;92.58;97797.88;5055275;28;20402;-55
2023/10/13 03:05:42;;;;;;;8.20;2.17;;;;;;;7.44;93.09;97810.53;5072584;28;20060;-57
2023/10/13 03:08:10;;;;;;;3.83;1.80;;;;;;;7.50;93.22;97801.59;5088149;28;20047;-56
2023/10/13 03:10:45;;;;;;;6.97;1.95;;;;;;;7.58;92.89;97807.44;5071892;28;20082;-57
2023/10/13 03:13:10;;;;;;;4.90;1.98;;;;;;;7.64;91.36;97815.09;5087639;28;20036;-54
2023/10/13 03:15:36;;;;;;;8.32;1.70;;;;;;;7.71;91.48;97801.69;5038573;28;20047;-56
2023/10/13 03:18:02;;;;;;;5.75;1.60;;;;;;;7.65;91.14;97806.16;5022116;28;20048;-55
2023/10/13 03:20:35;;;;;;;5.68;1.80;;;;;;;7.62;91.53;97806.66;5072463;28;20394;-55
2023/10/13 03:23:09;;;;;;;10.05;1.70;;;;;;;7.56;90.96;97814.78;5072674;28;20547;-56
2023/10/13 03:25:55;;;;;;;5.60;1.80;;;;;;;7.54;91.12;97822.19;5054981;28;20044;-56
2023/10/13 03:28:25;;;;;;;9.55;2.25;;;;;;;7.54;91.06;97819.53;5037924;28;20426;-54
2023/10/13 03:30:52;;;;;;;5.03;1.90;;;;;;;7.52;91.04;97830.34;5054857;28;20516;-58
2023/10/13 03:33:27;;;;;;;5.10;1.75;;;;;;;7.49;90.41;97830.84;5072657;28;20044;-55
2023/10/13 03:36:05;;;;;;;5.10;2.20;;;;;;;7.51;91.28;97847.22;5054503;28;20552;-56
2023/10/13 03:38:36;;;;;;;5.68;2.10;;;;;;;7.49;91.07;97849.31;5054691;28;20055;-55
2023/10/13 03:41:12;;;;;;;4.65;1.92;;;;;;;7.46;90.95;97845.31;5072592;28;20068;-56
2023/10/13 03:44:09;;;;;;;4.40;1.63;;;;;;;7.43;91.05;97848.47;5072737;28;20048;-56
2023/10/13 03:46:36;;;;;;;5.63;1.83;;;;;;;7.40;90.89;97862.16;5054467;28;20040;-56
2023/10/13 03:49:06;;;;;;;6.28;1.90;;;;;;;7.43;91.04;97869.56;5072240;28;20044;-56
2023/10/13 03:51:32;;;;;;;8.55;2.30;;;;;;;7.53;91.09;97878.59;5072494;28;20066;-57
2023/10/13 03:53:58;;;;;;;6.30;1.85;;;;;;;7.64;90.44;97880.25;5081117;28;20048;-55
2023/10/13 03:56:28;;;;;;;10.00;2.45;;;;;;;7.78;89.44;97880.59;5073971;28;20402;-55
2023/10/13 03:58:57;;;;;;;;;;;;;;;7.88;89.33;97889.38;5092648;28;20048;-57
2023/10/13 04:01:31;;;;;;;6.70;1.80;;;;;;;7.94;87.74;97890.97;5057590;28;20018;-57
2023/10/13 04:04:11;;;;;;;4.22;2.00;;;;;;;8.00;87.25;97888.34;5091961;28;20044;-56
2023/10/13 04:17:27;;;;;;;6.75;2.00;;;;;;;8.30;85.22;97906.97;5042006;28;20032;-54
2023/10/13 04:38:59;;;;;;;9.27;1.83;;;;;;;8.41;83.10;97950.88;5091533;28;20055;-54
2023/10/13 04:41:36;;;;;;;6.28;1.75;;;;;;;8.46;83.32;97971.19;5091641;28;20055;-55
2023/10/13 04:44:05;;;;;;;5.50;1.50;;;;;;;8.53;83.20;97976.25;5091739;28;20071;-56
2023/10/13 04:46:54;;;;;;;7.43;1.75;;;;;;;8.59;82.31;97969.94;5091746;28;20032;-58
2023/10/13 04:49:35;;;;;;;5.25;2.05;;;;;;;8.61;81.83;97975.75;5076666;28;20169;-55
2023/10/13 04:55:17;;;;;;;7.25;1.88;;;;;;;8.67;81.34;97981.84;5073152;28;20040;-57
2023/10/13 04:57:52;;;;;;;5.97;1.70;;;;;;;8.73;80.57;97984.22;5086683;28;20513;-57
2023/10/13 05:49:49;;;;;;;3.63;1.50;;;;;;;9.13;76.23;98072.66;5094405;28;20113;-58
2023/10/13 05:52:19;;;;;;;5.75;1.80;;;;;;;9.02;77.41;98085.03;5095240;28;20036;-56
2023/10/13 06:30:40;;;;;;;4.53;1.85;;;;;;;8.64;75.76;98117.88;5074464;28;20396;-56
2023/10/13 06:33:06;;;;;;;4.30;1.58;;;;;;;8.60;75.42;98135.28;5071622;28;20043;-54
2023/10/13 06:35:31;;;;;;;2.45;1.27;;;;;;;8.64;75.44;98128.44;5074330;28;20533;-56
2023/10/13 06:38:00;;;;;;;3.67;1.52;;;;;;;8.67;74.98;98130.56;5092729;28;20439;-58
2023/10/13 06:40:32;;;;;;;9.10;1.80;;;;;;;8.70;75.60;98127.41;5075604;28;20043;-57
2023/10/13 06:43:12;;;;;;;1.75;1.25;;;;;;;8.78;76.01;98144.63;5092152;28;20089;-55
2023/10/13 06:45:40;;;;;;;2.83;1.48;;;;;;;8.81;73.93;98146.78;5075005;28;20040;-56
2023/10/13 06:48:10;;;;;;;4.75;1.50;;;;;;;8.89;74.14;98135.72;5093186;28;20394;-58
2023/10/13 06:50:41;;;;;;;1.65;1.17;;;;;;;8.85;72.01;98148.66;5074764;28;20039;-54
2023/10/13 06:53:07;;;;;;;3.13;1.30;;;;;;;8.95;73.03;98166.41;5090540;28;20177;-58
2023/10/13 06:55:39;;;;;;;3.72;1.35;;;;;;;8.97;72.28;98168.78;5092718;28;20047;-59
2023/10/13 06:58:06;;;;;;;4.50;1.67;;;;;;;8.99;72.57;98161.41;5057531;28;20051;-58
2023/10/13 07:00:34;;;;;;;4.65;1.60;;;;;;;9.16;72.17;98177.88;5092451;28;20519;-56
2023/10/13 07:03:08;;;;;;;4.30;1.52;;;;;;;9.25;70.88;98168.38;5074614;28;20142;-57
2023/10/13 07:05:43;;;;;;;2.47;1.05;;;;;;;9.39;70.38;98189.09;5076057;28;20052;-58
2023/10/13 07:08:14;;;;;;;2.38;1.15;;;;;;;9.50;70.76;98183.56;5092898;28;20067;-55
2023/10/13 07:13:30;;;;;;;4.90;1.55;;;;;;;9.80;67.27;98205.88;5092649;28;20022;-54
2023/10/13 07:16:05;;;;;;;4.25;1.00;;;;;;;9.74;66.36;98220.97;5092449;28;20127;-61
2023/10/13 07:18:36;;;;;;;2.65;1.17;;;;;;;9.83;66.87;98220.47;5074950;28;20046;-55
2023/10/13 07:21:11;;;;;;;1.58;1.20;;;;;;;9.88;65.64;98225.75;5092366;28;20103;-57
2023/10/13 07:23:37;;;;;;;3.78;1.30;;;;;;;10.07;65.69;98231.34;5092597;28;20040;-58
2023/10/13 07:26:05;;;;;;;3.05;1.20;;;;;;;10.13;66.02;98219.72;5054332;28;20477;-56
2023/10/13 07:28:35;;;;;;;2.80;1.30;;;;;;;10.21;65.69;98227.16;5065046;28;20048;-57
2023/10/13 07:33:31;;;;;;;1.42;1.10;;;;;;;10.24;64.63;98235.34;5092443;28;20055;-56
2023/10/13 07:36:10;;;;;;;3.03;1.45;;;;;;;10.34;64.42;98244.41;5092238;28;20046;-57
2023/10/13 07:38:37;;;;;;;1.50;1.00;;;;;;;10.35;63.42;98249.44;5092219;28;20448;-57
2023/10/13 07:41:15;;;;;;;2.17;1.10;;;;;;;10.18;64.27;98248.88;5056526;28;20085;-56
2023/10/13 07:43:42;;;;;;;1.38;1.20;;;;;;;10.21;64.33;98257.06;5058695;28;20519;-57
2023/10/13 07:46:12;;;;;;;3.72;1.52;;;;;;;10.27;63.57;98255.25;5091960;28;20036;-57
2023/10/13 07:48:40;;;;;;;2.47;1.30;;;;;;;10.30;63.93;98253.94;5087931;28;20101;-58
2023/10/13 07:51:13;;;;;;;2.05;1.17;;;;;;;10.33;62.87;98261.38;5054996;28;20580;-55
2023/10/13 07:53:43;;;;;;;4.20;1.25;;;;;;;10.20;63.32;98266.06;5091412;28;20411;-56
2023/10/13 07:56:12;;;;;;;2.03;1.20;;;;;;;10.30;63.80;98261.88;5091470;28;20468;-57
2023/10/13 07:58:52;;;;;;;1.97;1.10;;;;;;;10.32;62.75;98286.25;5071892;28;20093;-57
2023/10/13 08:01:19;;;;;;;2.42;1.25;;;;;;;10.34;61.86;98282.28;5073764;28;20040;-57
2023/10/13 08:03:46;;;;;;;2.47;1.30;;;;;;;10.39;62.19;98300.84;5092063;28;20074;-59
2023/10/13 08:08:43;;;;;;;;;;;;;;;10.48;62.83;98306.41;5091675;28;20496;-60
2023/10/13 08:14:22;;;;;;;3.15;1.63;;;;;;;10.59;60.87;98321.28;5073818;28;20044;-59
2023/10/13 08:16:59;;;;;;;3.50;1.30;;;;;;;10.80;62.08;98332.69;5073951;28;20051;-57
2023/10/13 08:19:27;;;;;;;2.35;1.15;;;;;;;10.86;59.89;98333.47;5088915;28;20036;-60
2023/10/13 08:21:58;;;;;;;2.50;1.20;;;;;;;10.72;58.45;98333.19;5091104;28;20040;-59
2023/10/13 08:32:35;;;;;;;2.05;1.23;;;;;;;10.85;57.45;98345.13;5089226;28;20523;-59
2023/10/13 08:37:36;;;;;;;2.67;1.20;;;;;;;10.84;57.04;98367.41;5091399;28;20417;-58
2023/10/13 09:12:13;;;;;;;1.30;0.82;;;;;;;10.78;55.14;98389.66;5055009;28;20045;-57
2023/10/13 09:14:44;;;;;;;1.27;0.90;;;;;;;10.77;55.29;98393.38;5030779;28;20498;-60
2023/10/13 09:19:48;;;;;;;1.25;1.00;;;;;;;11.08;55.25;98416.22;5036052;28;20095;-59
2023/10/13 09:22:27;;;;;;;3.60;1.15;;;;;;;11.39;55.60;98416.22;5053042;28;20067;-59
2023/10/13 09:25:00;;;;;;;3.42;1.20;;;;;;;11.55;55.19;98417.00;5020739;28;20556;-59
2023/10/13 09:27:33;;;;;;;1.85;1.10;;;;;;;11.49;54.27;98429.47;5053932;28;20391;-59
2023/10/13 09:30:08;;;;;;;1.67;0.95;;;;;;;11.59;54.78;98436.66;5054290;28;20044;-59
2023/10/13 09:32:45;;;;;;;2.10;1.30;;;;;;;11.56;54.77;98453.13;5047713;28;20041;-59
2023/10/13 09:35:18;;;;;;;2.30;1.40;;;;;;;11.68;54.92;98452.84;5054747;28;20029;-58
2023/10/13 09:37:46;;;;;;;3.78;1.35;;;;;;;11.65;54.08;98456.84;5053959;28;20056;-61
2023/10/13 09:40:34;;;;;;;2.55;1.25;;;;;;;11.32;54.07;98444.88;5053975;28;20040;-60
2023/10/13 09:43:06;;;;;;;6.03;1.38;;;;;;;11.23;54.76;98441.16;5052859;28;20049;-60
2023/10/13 09:45:40;;;;;;;3.40;1.08;;;;;;;11.23;54.78;98452.56;5054054;28;20041;-60
2023/10/13 09:48:26;;;;;;;3.42;1.50;;;;;;;11.13;55.30;98457.88;5053207;28;20132;-61
2023/10/13 09:50:53;;;;;;;2.42;1.30;;;;;;;11.20;55.37;98458.41;5037500;28;20032;-59
2023/10/13 09:53:20;;;;;;;2.28;1.10;;;;;;;11.17;54.69;98468.75;5054112;28;20499;-60
2023/10/13 09:56:11;;;;;;;2.83;1.10;;;;;;;11.14;54.47;98470.06;5053956;28;20051;-59
2023/10/13 09:58:57;;;;;;;1.17;1.00;;;;;;;11.19;55.21;98464.78;5052993;28;20048;-60
2023/10/13 10:01:37;;;;;;;2.63;1.20;;;;;;;11.18;55.15;98484.41;5036603;28;20049;-61
2023/10/13 10:04:13;;;;;;;;;;;;;;;11.10;54.54;98474.31;5053599;28;20060;-59
2023/10/13 10:06:39;;;;;;;3.35;1.98;;;;;;;11.13;54.66;98481.75;5075741;28;20385;-61
2023/10/13 10:09:12;;;;;;;9.70;4.50;;;;;;;11.14;54.08;98488.63;5072686;28;20048;-61
2023/10/13 10:12:00;;;;;;;7.65;4.05;;;;;;;11.27;54.60;98463.47;5073544;28;20062;-58
2023/10/13 10:14:46;;;;;;;1.80;1.13;;;;;;;11.39;52.62;98474.63;5073465;28;20106;-58
2023/10/13 10:17:45;;;;;;;2.05;1.02;;;;;;;11.47;53.28;98486.53;5072586;28;20021;-59
2023/10/13 10:20:19;;;;;;;2.50;1.10;;;;;;;11.57;52.92;98499.81;5056825;28;20093;-57
2023/10/13 10:23:01;;;;;;;0.90;0.90;;;;;;;11.64;52.18;98494.25;5061452;28;20094;-59
2023/10/13 10:25:37;;;;;;;5.38;1.20;;;;;;;11.65;51.78;98509.09;5069263;28;20048;-58
2023/10/13 10:28:07;;;;;;;7.13;0.93;;;;;;;11.58;52.02;98494.25;5063932;28;20044;-59
2023/10/13 10:30:38;;;;;;;4.47;1.00;;;;;;;11.46;51.79;98506.97;5068185;28;20397;-58
2023/10/13 10:33:12;;;;;;;1.67;1.00;;;;;;;11.46;52.77;98514.16;5067774;28;20086;-60
2023/10/13 10:35:46;;;;;;;0.98;0.90;;;;;;;11.47;52.25;98511.25;5072034;28;20114;-57
2023/10/13 10:38:24;;;;;;;2.53;0.90;;;;;;;11.48;52.31;98512.03;5072383;28;20106;-58
2023/10/13 10:40:58;;;;;;;2.92;1.00;;;;;;;11.43;52.89;98509.38;5071968;28;20516;-60
2023/10/13 10:43:26;;;;;;;5.85;1.27;;;;;;;11.46;52.55;98524.75;5072715;28;20054;-59
2023/10/13 10:45:52;;;;;;;1.60;1.00;;;;;;;11.43;52.13;98522.63;5071491;28;20215;-59
2023/10/13 10:48:18;;;;;;;3.00;1.20;;;;;;;11.36;51.78;98526.34;5073120;28;20041;-59
2023/10/13 10:50:55;;;;;;;3.42;1.05;;;;;;;11.36;51.47;98541.47;5073017;28;20512;-58
2023/10/13 10:53:33;;;;;;;1.40;1.00;;;;;;;11.32;51.28;98537.72;5055532;28;20083;-59
2023/10/13 10:56:08;;;;;;;1.20;0.93;;;;;;;11.33;51.22;98542.00;5071877;28;20056;-57
2023/10/13 10:58:43;;;;;;;1.90;1.05;;;;;;;11.29;51.00;98539.06;5072033;28;20041;-58
2023/10/13 11:01:19;;;;;;;1.85;1.17;;;;;;;11.23;50.70;98541.97;5052324;28;20037;-60
2023/10/13 11:03:59;;;;;;;3.67;0.93;;;;;;;11.23;50.23;98545.41;5057680;28;20072;-59
2023/10/13 11:06:26;;;;;;;2.00;0.80;;;;;;;11.14;50.60;98553.06;5078624;28;20425;-59
2023/10/13 11:09:52;;;;;;;2.22;1.08;;;;;;;11.04;51.71;98555.72;5092795;28;20048;-58
2023/10/13 11:11:54;;;;;;;2.65;1.20;;;;;;;11.07;51.87;98567.66;5060077;28;20055;-60
2023/10/13 11:14:22;;;;;;;3.55;0.80;;;;;;;10.97;50.90;98562.31;5092676;28;20036;-59
2023/10/13 11:16:59;;;;;;;1.90;1.17;;;;;;;10.97;50.80;98573.72;5093363;28;20441;-58
2023/10/13 11:19:35;;;;;;;2.13;1.15;;;;;;;11.04;52.31;98574.28;5092756;28;20273;-57
2023/10/13 11:22:36;;;;;;;2.30;1.20;;;;;;;11.00;51.69;98575.88;5093216;28;20541;-59
2023/10/13 11:25:10;;;;;;;1.85;1.00;;;;;;;10.97;49.90;98586.16;5092286;28;20048;-58
2023/10/13 11:27:44;;;;;;;2.53;1.08;;;;;;;10.91;50.06;98583.50;5092746;28;20134;-58
2023/10/13 11:30:20;;;;;;;1.13;0.90;;;;;;;10.89;49.85;98579.53;5092221;28;20040;-59
2023/10/13 11:33:06;;;;;;;2.72;1.10;;;;;;;10.87;50.66;98584.28;5083628;28;20044;-59
2023/10/13 11:38:26;;;;;;;3.20;1.33;;;;;;;10.90;49.79;98594.38;5092515;28;20135;-58
2023/10/13 11:46:55;;;;;;;1.65;1.17;;;;;;;11.03;50.02;98612.47;5092358;28;20036;-62
2023/10/13 11:51:47;;;;;;;2.65;1.30;;;;;;;11.07;49.06;98607.44;5092821;28;19920;-59
2023/10/13 11:54:18;;;;;;;3.80;1.27;;;;;;;11.06;49.41;98601.34;5037316;28;20638;-59
2023/10/13 11:56:44;;;;;;;1.30;0.98;;;;;;;11.07;50.10;98602.13;5072337;28;20032;-59
2023/10/13 11:59:17;;;;;;;1.85;0.93;;;;;;;11.06;49.58;98597.88;5057984;28;20039;-59
2023/10/13 12:04:40;;;;;;;1.17;0.82;;;;;;;11.01;48.98;98601.31;5091635;28;20060;-58
2023/10/13 12:07:20;;;;;;;5.75;1.08;;;;;;;11.01;49.06;98597.88;5091732;28;20059;-56
2023/10/13 12:12:24;;;;;;;1.75;1.30;;;;;;;10.95;49.97;98597.06;5092363;28;20377;-58
2023/10/13 12:14:58;;;;;;;2.95;0.98;;;;;;;10.95;49.25;98598.91;5039350;28;20135;-57
2023/10/13 12:17:31;;;;;;;2.42;1.10;;;;;;;10.94;50.17;98608.69;5092025;28;20044;-58
2023/10/13 12:19:58;;;;;;;3.63;1.10;;;;;;;10.96;50.56;98611.91;5091553;28;20048;-59
2023/10/13 12:22:28;;;;;;;2.45;1.13;;;;;;;10.95;49.80;98605.00;5092000;28;20589;-60
2023/10/13 12:24:55;;;;;;;1.38;1.08;;;;;;;10.92;50.38;98624.09;5090298;28;20043;-60
2023/10/13 12:27:35;;;;;;;3.35;1.27;;;;;;;10.91;50.28;98607.38;5056667;28;20386;-59
2023/10/13 12:30:07;;;;;;;1.77;0.98;;;;;;;10.93;50.30;98603.66;5091272;28;20044;-58
2023/10/13 12:32:34;;;;;;;1.25;1.00;;;;;;;10.92;50.02;98602.88;5084811;28;20529;-58
2023/10/13 12:56:56;;;;;;;1.77;1.20;;;;;;;10.80;51.40;98629.59;5072195;28;20067;-54
2023/10/13 12:59:26;;;;;;;1.58;1.15;;;;;;;10.80;52.05;98623.50;5090606;28;20265;-55
2023/10/13 13:01:53;;;;;;;2.53;1.20;;;;;;;10.78;51.42;98629.03;5072860;28;20408;-59
2023/10/13 13:04:31;;;;;;;3.15;1.60;;;;;;;10.75;51.94;98626.13;5091155;28;20074;-59
2023/10/13 13:06:57;;;;;;;1.65;1.15;;;;;;;10.75;51.37;98631.41;5090974;28;20522;-60
2023/10/13 13:09:26;;;;;;;2.63;1.38;;;;;;;10.74;51.79;98633.28;5090989;28;20062;-59
2023/10/13 13:11:57;;;;;;;3.00;1.25;;;;;;;10.73;52.38;98636.16;5073618;28;20448;-59
2023/10/13 13:14:29;;;;;;;2.70;1.40;;;;;;;10.68;51.73;98640.41;5071875;28;20081;-59
2023/10/13 13:17:06;;;;;;;5.75;1.35;;;;;;;10.68;52.51;98639.59;5073112;28;20400;-59
2023/10/13 13:19:39;;;;;;;4.30;1.65;;;;;;;10.68;52.79;98642.25;5072595;28;20134;-59
2023/10/13 13:22:11;;;;;;;3.83;1.40;;;;;;;10.65;53.44;98645.41;5054292;28;20098;-56
2023/10/13 13:24:43;;;;;;;5.20;1.52;;;;;;;10.63;53.87;98645.66;5046437;28;20045;-58
2023/10/13 13:27:22;;;;;;;4.53;1.50;;;;;;;10.60;53.66;98642.72;5069908;28;20582;-59
2023/10/13 13:29:48;;;;;;;4.15;1.63;;;;;;;10.55;54.39;98643.47;5053580;28;20097;-56
2023/10/13 13:32:18;;;;;;;3.58;1.58;;;;;;;10.52;54.40;98640.53;5090346;28;20028;-60
2023/10/13 13:34:57;;;;;;;5.35;1.50;;;;;;;10.52;53.86;98651.94;5087693;28;20044;-57
2023/10/13 13:37:23;;;;;;;5.32;1.50;;;;;;;10.46;53.31;98650.31;5072954;28;20040;-59
2023/10/13 13:39:52;;;;;;;7.05;1.55;;;;;;;10.42;53.75;98652.66;5087680;28;20393;-58
2023/10/13 13:42:18;;;;;;;4.60;1.52;;;;;;;10.39;54.10;98658.47;5071468;28;20528;-60
2023/10/13 13:44:48;;;;;;;5.63;1.40;;;;;;;10.35;54.22;98662.69;5067932;28;20098;-55
2023/10/13 13:47:14;;;;;;;4.50;1.60;;;;;;;10.32;53.86;98657.09;5089589;28;20040;-58
2023/10/13 13:49:40;;;;;;;5.90;1.30;;;;;;;10.32;54.83;98665.81;5088451;28;20300;-57
2023/10/13 13:52:07;;;;;;;5.05;1.45;;;;;;;10.28;54.64;98674.53;5089861;28;20036;-58
2023/10/13 13:54:33;;;;;;;5.60;1.77;;;;;;;10.24;54.49;98687.47;5091176;28;20044;-59
2023/10/13 13:56:59;;;;;;;4.75;1.60;;;;;;;10.19;54.77;98682.91;5094778;28;20090;-59
2023/10/13 13:59:24;;;;;;;7.35;1.60;;;;;;;10.13;55.58;98685.78;5094083;28;20040;-58
2023/10/13 14:01:52;;;;;;;3.28;1.80;;;;;;;10.06;55.51;98678.03;5074460;28;20146;-56
2023/10/13 14:04:19;;;;;;;5.10;1.80;;;;;;;10.04;56.10;98688.09;5084395;28;20078;-56
2023/10/13 14:06:45;;;;;;;4.10;1.48;;;;;;;10.01;55.62;98697.31;5082656;28;20048;-59
2023/10/13 14:09:15;;;;;;;4.00;1.55;;;;;;;9.99;56.07;98701.25;5074199;28;20127;-57
2023/10/13 14:16:53;;;;;;;3.63;1.65;;;;;;;9.77;57.02;98710.06;5073971;28;20050;-59
2023/10/13 14:19:28;;;;;;;5.15;1.85;;;;;;;9.71;57.36;98715.53;5076798;28;20501;-57
2023/10/13 14:21:55;;;;;;;5.80;2.38;;;;;;;9.68;57.50;98723.97;5073996;28;20080;-57
2023/10/13 14:24:27;;;;;;;4.57;2.17;;;;;;;9.63;57.84;98732.66;5073875;28;20068;-56
2023/10/13 14:27:13;;;;;;;5.20;2.28;;;;;;;9.56;57.96;98732.06;5072087;28;20508;-56
2023/10/13 14:29:44;;;;;;;6.60;2.80;;;;;;;9.47;58.76;98739.63;5058474;28;20040;-58
2023/10/13 14:32:13;;;;;;;5.03;2.30;;;;;;;9.44;58.50;98734.81;5094224;28;20294;-58
2023/10/13 14:34:54;;;;;;;3.75;2.25;;;;;;;9.40;58.86;98743.47;5093051;28;20044;-57
2023/10/13 14:37:26;;;;;;;5.35;2.40;;;;;;;9.35;59.35;98743.41;5075722;28;20039;-54
2023/10/13 14:39:56;;;;;;;4.95;2.45;;;;;;;9.28;60.56;98744.38;5092756;28;20040;-58
2023/10/13 14:42:27;;;;;;;5.03;2.35;;;;;;;9.22;60.21;98742.72;5093853;28;20479;-60
2023/10/13 14:44:55;;;;;;;5.45;2.72;;;;;;;9.18;60.55;98751.41;5093442;28;20564;-60
2023/10/13 14:47:25;;;;;;;5.07;1.85;;;;;;;9.15;60.35;98751.84;5093988;28;20559;-57
2023/10/13 14:49:59;;;;;;;5.25;2.00;;;;;;;9.11;60.69;98762.13;5093119;28;20063;-58
2023/10/13 14:52:25;;;;;;;5.22;2.60;;;;;;;9.07;60.48;98771.59;5093713;28;20070;-59
2023/10/13 14:54:57;;;;;;;10.68;3.00;;;;;;;9.02;60.90;98768.88;5092897;28;20484;-66
2023/10/13 14:57:27;;;;;;;5.25;3.10;;;;;;;8.96;62.03;98770.63;5093403;28;20135;-60
2023/10/13 14:59:53;;;;;;;6.20;2.33;;;;;;;8.91;61.88;98782.97;5093042;28;20123;-59
2023/10/13 15:02:19;;;;;;;4.88;2.80;;;;;;;8.86;62.61;98783.72;5093137;28;20052;-60
2023/10/13 15:04:49;;;;;;;4.63;2.20;;;;;;;8.82;62.74;98793.13;5074265;28;20417;-59
2023/10/13 15:07:16;;;;;;;4.32;2.00;;;;;;;8.79;62.27;98791.78;5092533;28;20584;-58
2023/10/13 15:09:42;;;;;;;5.00;2.85;;;;;;;8.77;62.51;98787.78;5092194;28;20040;-58
2023/10/13 15:12:10;;;;;;;4.50;2.25;;;;;;;8.74;62.76;98786.44;5092776;28;20557;-59
2023/10/13 15:14:42;;;;;;;4.05;2.20;;;;;;;8.72;62.80;98790.34;5083657;28;20062;-58
2023/10/13 15:17:09;;;;;;;7.75;2.70;;;;;;;8.68;62.75;98783.91;5091474;28;20036;-59
2023/10/13 15:19:38;;;;;;;6.38;2.53;;;;;;;8.64;63.00;98789.69;5090102;28;20036;-59
2023/10/13 15:22:12;;;;;;;8.33;3.20;;;;;;;8.59;63.28;98780.91;5056081;28;20062;-60
2023/10/13 15:25:01;;;;;;;6.75;2.65;;;;;;;8.56;62.99;98795.38;5092490;28;20039;-58
2023/10/13 15:27:28;;;;;;;9.23;3.05;;;;;;;8.54;63.39;98794.81;5092573;28;20484;-60
2023/10/13 15:29:54;;;;;;;7.28;2.53;;;;;;;8.51;63.90;98792.66;5082606;28;20044;-56
2023/10/13 15:35:05;;;;;;;5.90;2.90;;;;;;;8.44;64.03;98804.38;5088648;28;20047;-56
2023/10/13 15:37:31;;;;;;;6.18;2.97;;;;;;;8.38;64.85;98801.69;5091722;28;20044;-59
2023/10/13 15:39:59;;;;;;;5.45;2.75;;;;;;;8.35;64.58;98807.41;5091511;28;20066;-59
2023/10/13 15:42:25;;;;;;;8.48;3.38;;;;;;;8.31;64.90;98802.81;5073064;28;20135;-64
2023/10/13 15:44:51;;;;;;;11.75;3.38;;;;;;;8.30;64.46;98815.22;5073647;28;20086;-56